Time;durP1;ratioP1;P1;durP2;ratioP2;P2;SDS_P1;SDS_P2;PMS_P1;PMS_P2;Temp;Humidity;BMP_temperature;BMP_pressure;BME280_temperature;BME280_humidity;BME280_pressure;Samples;Min_cycle;Max_cycle;Signal;HPM_P1;HPM_P2
2024/01/23 00:01:22;;;;;;;;;;;19.50;53.20;;;;;;5016636;28;19925;-71
2024/01/23 00:03:48;;;;;;;;;;;19.50;53.20;;;;;;5018872;28;19932;-71
2024/01/23 00:06:13;;;;;;;;;;;19.50;53.20;;;;;;5035688;28;19925;-71
2024/01/23 00:08:39;;;;;;;;;;;19.50;53.20;;;;;;5037029;28;19925;-71
2024/01/23 00:11:05;;;;;;;;;;;19.50;53.20;;;;;;5013091;28;19959;-71
2024/01/23 00:13:30;;;;;;;;;;;19.40;53.00;;;;;;4996754;28;19926;-71
2024/01/23 00:15:56;;;;;;;;;;;19.40;53.00;;;;;;5002292;28;19936;-71
2024/01/23 00:18:22;;;;;;;;;;;19.40;53.00;;;;;;5036732;28;19983;-71
2024/01/23 00:20:47;;;;;;;;;;;19.40;53.00;;;;;;5035917;28;19935;-70
2024/01/23 00:23:13;;;;;;;;;;;19.40;52.90;;;;;;5036267;28;19921;-71
2024/01/23 00:25:38;;;;;;;;;;;19.40;52.90;;;;;;5054448;28;20336;-71
2024/01/23 00:28:06;;;;;;;;;;;19.30;52.80;;;;;;5035339;28;19925;-71
2024/01/23 00:30:31;;;;;;;;;;;19.40;52.90;;;;;;5054395;28;19932;-70
2024/01/23 00:32:58;;;;;;;;;;;19.40;52.90;;;;;;5036137;28;19924;-71
2024/01/23 00:35:23;;;;;;;;;;;19.40;52.80;;;;;;5035344;28;19967;-71
2024/01/23 00:37:49;;;;;;;;;;;19.30;52.80;;;;;;5053983;28;19972;-71
2024/01/23 00:40:14;;;;;;;;;;;19.30;52.70;;;;;;5024404;28;19979;-71
2024/01/23 00:42:40;;;;;;;;;;;19.30;52.70;;;;;;5004517;28;19936;-70
2024/01/23 00:45:05;;;;;;;;;;;19.30;52.70;;;;;;4995502;28;19990;-71
2024/01/23 00:47:31;;;;;;;;;;;19.30;52.70;;;;;;4996347;28;19926;-71
2024/01/23 00:49:56;;;;;;;;;;;19.30;52.70;;;;;;5021797;28;19926;-72
2024/01/23 00:52:22;;;;;;;;;;;19.30;52.60;;;;;;5014582;28;20411;-71
2024/01/23 00:54:47;;;;;;;;;;;19.30;52.60;;;;;;5016498;28;19925;-71
2024/01/23 00:57:13;;;;;;;;;;;19.20;52.50;;;;;;5032935;28;19925;-72
2024/01/23 00:59:38;;;;;;;;;;;19.20;52.50;;;;;;5030963;28;19952;-71
2024/01/23 01:02:04;;;;;;;;;;;19.20;52.50;;;;;;4996074;28;19929;-71
2024/01/23 01:04:29;;;;;;;;;;;19.20;52.40;;;;;;5013329;28;20025;-71
2024/01/23 01:06:55;;;;;;;;;;;19.20;52.40;;;;;;4996166;28;20316;-71
2024/01/23 01:09:20;;;;;;;;;;;19.20;52.30;;;;;;5013386;28;20020;-71
2024/01/23 01:11:46;;;;;;;;;;;19.20;52.30;;;;;;5014144;28;20024;-71
2024/01/23 01:14:11;;;;;;;;;;;19.20;52.30;;;;;;4996031;28;20388;-71
2024/01/23 01:16:37;;;;;;;;;;;19.20;52.20;;;;;;5005752;28;19925;-71
2024/01/23 01:19:03;;;;;;;;;;;19.10;52.20;;;;;;5015583;28;20007;-71
2024/01/23 01:21:29;;;;;;;;;;;19.20;52.20;;;;;;5015600;28;19971;-71
2024/01/23 01:23:54;;;;;;;;;;;19.10;52.20;;;;;;5032672;28;19925;-71
2024/01/23 01:26:20;;;;;;;;;;;19.10;52.20;;;;;;5033616;28;19929;-71
2024/01/23 01:28:45;;;;;;;;;;;19.10;52.20;;;;;;5015592;28;19976;-71
2024/01/23 01:31:11;;;;;;;;;;;19.10;52.10;;;;;;5014596;28;19929;-71
2024/01/23 01:33:36;;;;;;;;;;;19.10;52.10;;;;;;5033562;28;19926;-71
2024/01/23 01:36:02;;;;;;;;;;;19.10;52.10;;;;;;5014836;28;19989;-71
2024/01/23 01:38:28;;;;;;;;;;;19.10;52.10;;;;;;5032305;28;19979;-71
2024/01/23 01:40:54;;;;;;;;;;;19.10;52.10;;;;;;5033059;28;19932;-71
2024/01/23 01:43:25;;;;;;;;;;;19.00;52.70;;;;;;5015459;28;19928;-71
2024/01/23 01:46:10;;;;;;;;;;;19.00;52.10;;;;;;5032421;28;20304;-71
2024/01/23 01:48:36;;;;;;;;;;;19.00;52.00;;;;;;4996940;28;19925;-71
2024/01/23 01:51:02;;;;;;;;;;;19.00;52.00;;;;;;4995516;28;19971;-71
2024/01/23 01:53:27;;;;;;;;;;;19.00;51.90;;;;;;5012403;28;19925;-71
2024/01/23 01:55:53;;;;;;;;;;;19.00;51.90;;;;;;4998509;28;19932;-71
2024/01/23 01:58:18;;;;;;;;;;;19.10;51.90;;;;;;4999652;28;19929;-72
2024/01/23 02:00:44;;;;;;;;;;;19.00;51.90;;;;;;4999002;28;19925;-71
2024/01/23 02:03:10;;;;;;;;;;;19.00;51.90;;;;;;4999377;28;20413;-71
2024/01/23 02:05:35;;;;;;;;;;;19.00;51.80;;;;;;4999444;28;19926;-71
2024/01/23 02:08:01;;;;;;;;;;;19.00;51.80;;;;;;4999262;28;19932;-72
2024/01/23 02:10:26;;;;;;;;;;;19.00;51.90;;;;;;4983385;28;19992;-71
2024/01/23 02:12:52;;;;;;;;;;;19.00;51.80;;;;;;4998483;28;19926;-71
2024/01/23 02:15:17;;;;;;;;;;;19.00;51.80;;;;;;5017133;28;19929;-71
2024/01/23 02:17:43;;;;;;;;;;;19.00;51.80;;;;;;4999683;28;19922;-71
2024/01/23 02:20:08;;;;;;;;;;;19.00;51.70;;;;;;5015950;28;19964;-71
2024/01/23 02:22:34;;;;;;;;;;;19.00;51.70;;;;;;5016790;28;19922;-71
2024/01/23 02:24:59;;;;;;;;;;;19.00;51.70;;;;;;4999283;28;19937;-72
2024/01/23 02:27:25;;;;;;;;;;;18.90;51.60;;;;;;4998334;28;19926;-71
2024/01/23 02:29:50;;;;;;;;;;;19.00;51.60;;;;;;5016802;28;19929;-71
2024/01/23 02:32:16;;;;;;;;;;;18.90;51.60;;;;;;4999172;28;19925;-71
2024/01/23 02:34:41;;;;;;;;;;;18.90;51.60;;;;;;5016378;28;20017;-72
2024/01/23 02:37:07;;;;;;;;;;;18.90;51.60;;;;;;4998984;28;19925;-71
2024/01/23 02:39:32;;;;;;;;;;;18.90;51.60;;;;;;4998938;28;20296;-71
2024/01/23 02:41:58;;;;;;;;;;;18.90;51.60;;;;;;4998309;28;20123;-72
2024/01/23 02:44:23;;;;;;;;;;;18.90;51.60;;;;;;4999117;28;19929;-71
2024/01/23 02:46:49;;;;;;;;;;;18.90;51.60;;;;;;4999154;28;20012;-71
2024/01/23 02:49:14;;;;;;;;;;;18.90;51.50;;;;;;5015366;28;20366;-71
2024/01/23 02:51:40;;;;;;;;;;;18.90;51.50;;;;;;5016372;28;19929;-71
2024/01/23 02:54:05;;;;;;;;;;;18.90;51.50;;;;;;4998440;28;20426;-71
2024/01/23 02:56:31;;;;;;;;;;;18.90;51.50;;;;;;5015550;28;19926;-71
2024/01/23 02:58:56;;;;;;;;;;;18.90;51.40;;;;;;4998518;28;20022;-71
2024/01/23 03:01:21;;;;;;;;;;;18.90;51.40;;;;;;5012386;28;19926;-72
2024/01/23 03:03:47;;;;;;;;;;;18.90;51.40;;;;;;4996977;28;20354;-71
2024/01/23 03:06:12;;;;;;;;;;;18.90;51.30;;;;;;5014333;28;19925;-71
2024/01/23 03:08:38;;;;;;;;;;;18.90;51.30;;;;;;4997553;28;20040;-71
2024/01/23 03:11:03;;;;;;;;;;;18.90;51.30;;;;;;4997281;28;20008;-71
2024/01/23 03:13:29;;;;;;;;;;;18.90;51.30;;;;;;5026038;28;20020;-71
2024/01/23 03:15:55;;;;;;;;;;;19.00;51.40;;;;;;5034976;28;19925;-72
2024/01/23 03:18:21;;;;;;;;;;;19.00;51.30;;;;;;5017831;28;19925;-71
2024/01/23 03:20:47;;;;;;;;;;;19.00;51.30;;;;;;5035843;28;20288;-71
2024/01/23 03:23:12;;;;;;;;;;;19.00;51.30;;;;;;5034736;28;19925;-71
2024/01/23 03:25:38;;;;;;;;;;;19.00;51.20;;;;;;5035580;28;19932;-71
2024/01/23 03:28:04;;;;;;;;;;;19.00;51.20;;;;;;5040442;28;19924;-71
2024/01/23 03:30:32;;;;;;;;;;;19.00;51.20;;;;;;5036903;28;20320;-71
2024/01/23 03:32:58;;;;;;;;;;;19.00;51.20;;;;;;5055118;28;19929;-71
2024/01/23 03:35:24;;;;;;;;;;;19.00;51.10;;;;;;5037744;28;19925;-71
2024/01/23 03:37:50;;;;;;;;;;;19.00;51.10;;;;;;5054429;28;19951;-71
2024/01/23 03:40:16;;;;;;;;;;;19.00;51.10;;;;;;5054945;28;19925;-71
2024/01/23 03:42:41;;;;;;;;;;;19.00;51.00;;;;;;5037198;28;19932;-71
2024/01/23 03:45:08;;;;;;;;;;;19.00;51.00;;;;;;5036122;28;19924;-71
2024/01/23 03:47:34;;;;;;;;;;;19.00;51.00;;;;;;5037213;28;19925;-71
2024/01/23 03:49:59;;;;;;;;;;;19.00;51.00;;;;;;5036925;28;19950;-71
2024/01/23 03:52:25;;;;;;;;;;;19.00;50.90;;;;;;5036687;28;20392;-71
2024/01/23 03:54:50;;;;;;;;;;;19.10;51.10;;;;;;5054751;28;20265;-71
2024/01/23 03:57:16;;;;;;;;;;;19.10;51.00;;;;;;5036765;28;19987;-71
2024/01/23 03:59:45;;;;;;;;;;;19.10;51.00;;;;;;5036052;28;20023;-71
2024/01/23 04:02:11;;;;;;;;;;;19.10;51.10;;;;;;5054443;28;19929;-71
2024/01/23 04:04:36;;;;;;;;;;;19.10;50.90;;;;;;5037489;28;19928;-71
2024/01/23 04:07:02;;;;;;;;;;;19.10;50.90;;;;;;5035622;28;20284;-71
2024/01/23 04:09:28;;;;;;;;;;;19.10;50.90;;;;;;5037139;28;19987;-71
2024/01/23 04:11:54;;;;;;;;;;;19.10;50.80;;;;;;5036810;28;20003;-71
2024/01/23 04:14:19;;;;;;;;;;;19.20;50.90;;;;;;5036161;28;20350;-72
2024/01/23 04:16:45;;;;;;;;;;;19.20;50.80;;;;;;5037106;28;19979;-72
2024/01/23 04:19:10;;;;;;;;;;;19.20;50.80;;;;;;5036169;28;19983;-71
2024/01/23 04:21:36;;;;;;;;;;;19.20;50.80;;;;;;5035729;28;20389;-71
2024/01/23 04:24:01;;;;;;;;;;;19.20;50.80;;;;;;5036704;28;19928;-71
2024/01/23 04:26:27;;;;;;;;;;;19.20;50.80;;;;;;5036111;28;19931;-71
2024/01/23 04:28:52;;;;;;;;;;;19.20;50.70;;;;;;5035603;28;19925;-71
2024/01/23 04:31:18;;;;;;;;;;;19.30;50.70;;;;;;5036405;28;19931;-71
2024/01/23 04:33:45;;;;;;;;;;;19.30;50.70;;;;;;5035578;28;20019;-71
2024/01/23 04:36:10;;;;;;;;;;;19.30;50.70;;;;;;5036370;28;19930;-71
2024/01/23 04:38:37;;;;;;;;;;;19.30;50.60;;;;;;5036022;28;20023;-71
2024/01/23 04:41:03;;;;;;;;;;;19.30;50.60;;;;;;5035526;28;19924;-71
2024/01/23 04:43:28;;;;;;;;;;;19.30;50.60;;;;;;5036322;28;19921;-71
2024/01/23 04:45:54;;;;;;;;;;;19.40;50.70;;;;;;5053677;28;19978;-71
2024/01/23 04:48:19;;;;;;;;;;;19.30;50.60;;;;;;5011806;28;20255;-71
2024/01/23 04:50:45;;;;;;;;;;;19.40;50.60;;;;;;5005793;28;20051;-71
2024/01/23 04:53:10;;;;;;;;;;;19.30;50.50;;;;;;5033410;28;19952;-71
2024/01/23 04:55:36;;;;;;;;;;;19.40;50.50;;;;;;5015426;28;19928;-71
2024/01/23 04:58:01;;;;;;;;;;;19.40;50.50;;;;;;5015897;28;19924;-71
2024/01/23 05:00:27;;;;;;;;;;;19.50;50.60;;;;;;5033657;28;19932;-71
2024/01/23 05:02:52;;;;;;;;;;;19.50;50.50;;;;;;5011758;28;19925;-71
2024/01/23 05:05:18;;;;;;;;;;;19.50;50.50;;;;;;5008221;28;20356;-71
2024/01/23 05:07:43;;;;;;;;;;;19.50;50.50;;;;;;5015270;28;19933;-72
2024/01/23 05:10:09;;;;;;;;;;;19.50;50.50;;;;;;5014961;28;19975;-71
2024/01/23 05:12:34;;;;;;;;;;;19.50;50.40;;;;;;4999476;28;20024;-71
2024/01/23 05:15:01;;;;;;;;;;;19.50;50.40;;;;;;5028120;28;19996;-71
2024/01/23 05:17:26;;;;;;;;;;;19.50;50.40;;;;;;4995720;28;20285;-71
2024/01/23 05:19:52;;;;;;;;;;;19.50;50.40;;;;;;4995902;28;20365;-70
2024/01/23 05:22:17;;;;;;;;;;;19.50;50.40;;;;;;4996271;28;19968;-71
2024/01/23 05:24:43;;;;;;;;;;;19.60;50.40;;;;;;5013008;28;20325;-71
2024/01/23 05:27:08;;;;;;;;;;;19.60;50.40;;;;;;4995794;28;19925;-70
2024/01/23 05:29:34;;;;;;;;;;;19.60;50.40;;;;;;4994956;28;20360;-70
2024/01/23 05:31:59;;;;;;;;;;;19.60;50.40;;;;;;4997063;28;19925;-71
2024/01/23 05:34:25;;;;;;;;;;;19.60;50.40;;;;;;5035710;28;19932;-70
2024/01/23 05:36:51;;;;;;;;;;;19.70;50.40;;;;;;5051788;28;19976;-71
2024/01/23 05:39:16;;;;;;;;;;;19.70;50.40;;;;;;5052783;28;19986;-71
2024/01/23 05:41:42;;;;;;;;;;;19.70;50.30;;;;;;5053006;28;19956;-71
2024/01/23 05:44:07;;;;;;;;;;;19.70;50.30;;;;;;5051956;28;19929;-71
2024/01/23 05:46:35;;;;;;;;;;;19.70;50.30;;;;;;5035274;28;19924;-71
2024/01/23 05:49:00;;;;;;;;;;;19.70;50.30;;;;;;5049524;28;20427;-70
2024/01/23 05:51:26;;;;;;;;;;;19.70;50.30;;;;;;5031529;28;19976;-71
2024/01/23 05:53:51;;;;;;;;;;;19.70;50.30;;;;;;5032689;28;19925;-71
2024/01/23 05:56:17;;;;;;;;;;;19.70;50.30;;;;;;5015672;28;19925;-71
2024/01/23 05:58:42;;;;;;;;;;;19.80;50.30;;;;;;5014236;28;20368;-71
2024/01/23 06:01:08;;;;;;;;;;;19.80;50.30;;;;;;5031784;28;20304;-71
2024/01/23 06:03:33;;;;;;;;;;;19.70;50.30;;;;;;5052818;28;20019;-71
2024/01/23 06:05:59;;;;;;;;;;;19.80;50.30;;;;;;5033642;28;19925;-71
2024/01/23 06:08:24;;;;;;;;;;;19.80;50.30;;;;;;5035019;28;19968;-71
2024/01/23 06:10:50;;;;;;;;;;;19.80;50.30;;;;;;5035209;28;19928;-71
2024/01/23 06:13:17;;;;;;;;;;;19.80;50.30;;;;;;5051506;28;20419;-71
2024/01/23 06:15:42;;;;;;;;;;;19.80;50.30;;;;;;5034934;28;20430;-71
2024/01/23 06:18:10;;;;;;;;;;;19.80;50.30;;;;;;5051347;28;19925;-71
2024/01/23 06:20:37;;;;;;;;;;;19.80;50.30;;;;;;5051462;28;19925;-71
2024/01/23 06:23:02;;;;;;;;;;;19.80;50.30;;;;;;5011922;28;20353;-71
2024/01/23 06:25:29;;;;;;;;;;;19.80;50.30;;;;;;4995732;28;19932;-71
2024/01/23 06:27:55;;;;;;;;;;;19.80;50.20;;;;;;4994183;28;19937;-71
2024/01/23 06:30:20;;;;;;;;;;;19.80;50.20;;;;;;4995409;28;19930;-71
2024/01/23 06:32:46;;;;;;;;;;;19.80;50.20;;;;;;5013053;28;19971;-71
2024/01/23 06:35:11;;;;;;;;;;;19.80;50.20;;;;;;4994480;28;19964;-71
2024/01/23 06:37:37;;;;;;;;;;;19.80;50.20;;;;;;4995582;28;19985;-71
2024/01/23 06:40:02;;;;;;;;;;;19.80;50.10;;;;;;4994330;28;19979;-71
2024/01/23 06:42:28;;;;;;;;;;;19.90;50.20;;;;;;4998947;28;20407;-71
2024/01/23 06:44:53;;;;;;;;;;;19.80;50.20;;;;;;5016448;28;19929;-71
2024/01/23 06:47:19;;;;;;;;;;;19.90;50.20;;;;;;4998457;28;19925;-71
2024/01/23 06:49:44;;;;;;;;;;;19.90;50.20;;;;;;4999062;28;20420;-71
2024/01/23 06:52:10;;;;;;;;;;;19.90;50.20;;;;;;4998465;28;19925;-72
2024/01/23 06:54:35;;;;;;;;;;;19.90;50.20;;;;;;5023530;28;19960;-71
2024/01/23 06:57:01;;;;;;;;;;;19.90;50.10;;;;;;5055741;28;20399;-72
2024/01/23 06:59:27;;;;;;;;;;;19.90;50.10;;;;;;5038085;28;19931;-72
2024/01/23 07:01:52;;;;;;;;;;;19.90;50.10;;;;;;5037143;28;20009;-71
2024/01/23 07:04:18;;;;;;;;;;;19.90;50.10;;;;;;5038467;28;19921;-71
2024/01/23 07:06:43;;;;;;;;;;;19.90;50.10;;;;;;5055648;28;19925;-71
2024/01/23 07:09:09;;;;;;;;;;;19.90;50.10;;;;;;5054878;28;20281;-72
2024/01/23 07:11:34;;;;;;;;;;;19.90;50.10;;;;;;5055695;28;19956;-71
2024/01/23 07:14:00;;;;;;;;;;;19.90;50.00;;;;;;5021472;28;19925;-71
2024/01/23 07:16:25;;;;;;;;;;;19.90;50.00;;;;;;5055119;28;19929;-71
2024/01/23 07:18:51;;;;;;;;;;;19.90;50.10;;;;;;5037872;28;19929;-69
2024/01/23 07:21:16;;;;;;;;;;;19.90;50.00;;;;;;5030414;28;20024;-75
2024/01/23 07:23:42;;;;;;;;;;;19.90;50.00;;;;;;5034445;28;19921;-75
2024/01/23 07:26:07;;;;;;;;;;;19.90;50.10;;;;;;5017348;28;20059;-75
2024/01/23 07:28:33;;;;;;;;;;;19.90;50.10;;;;;;5035361;28;19964;-75
2024/01/23 07:30:58;;;;;;;;;;;20.00;50.10;;;;;;5034563;28;19925;-75
2024/01/23 07:33:24;;;;;;;;;;;20.00;50.10;;;;;;5035203;28;19929;-75
2024/01/23 07:35:52;;;;;;;;;;;20.00;50.10;;;;;;5017791;28;19931;-75
2024/01/23 07:38:18;;;;;;;;;;;20.00;50.20;;;;;;5016952;28;19928;-75
2024/01/23 07:40:44;;;;;;;;;;;20.00;50.20;;;;;;5017900;28;19932;-75
2024/01/23 07:43:09;;;;;;;;;;;20.00;50.20;;;;;;5017138;28;19925;-74
2024/01/23 07:45:35;;;;;;;;;;;20.00;50.20;;;;;;5016859;28;20386;-74
2024/01/23 07:48:00;;;;;;;;;;;20.00;50.20;;;;;;5017327;28;19929;-73
2024/01/23 07:50:27;;;;;;;;;;;20.00;50.30;;;;;;5016976;28;19928;-75
2024/01/23 07:52:53;;;;;;;;;;;20.00;50.30;;;;;;5015833;28;19947;-75
2024/01/23 07:55:18;;;;;;;;;;;20.00;50.30;;;;;;5034527;28;20323;-76
2024/01/23 07:57:44;;;;;;;;;;;20.00;50.40;;;;;;5033584;28;20463;-74
2024/01/23 08:00:10;;;;;;;;;;;20.00;50.50;;;;;;5012956;28;19932;-74
2024/01/23 08:02:36;;;;;;;;;;;20.00;50.60;;;;;;5030323;28;19929;-74
2024/01/23 08:05:01;;;;;;;;;;;20.00;50.60;;;;;;5033613;28;19985;-74
2024/01/23 08:07:27;;;;;;;;;;;20.00;50.60;;;;;;5034066;28;19925;-75
2024/01/23 08:09:53;;;;;;;;;;;20.00;51.40;;;;;;5034038;28;19925;-74
2024/01/23 08:12:18;;;;;;;;;;;20.00;50.80;;;;;;5033447;28;20359;-75
2024/01/23 08:14:44;;;;;;;;;;;20.00;50.80;;;;;;5034156;28;19933;-75
2024/01/23 08:17:10;;;;;;;;;;;20.00;51.50;;;;;;5015002;28;19929;-74
2024/01/23 08:19:37;;;;;;;;;;;20.00;50.90;;;;;;5012352;28;19925;-70
2024/01/23 08:22:03;;;;;;;;;;;20.00;50.90;;;;;;5011609;28;19951;-72
2024/01/23 08:24:29;;;;;;;;;;;20.00;51.10;;;;;;5013282;28;19929;-73
2024/01/23 08:26:55;;;;;;;;;;;20.00;51.20;;;;;;5009950;28;19938;-73
2024/01/23 08:29:20;;;;;;;;;;;20.10;51.40;;;;;;5012963;28;20340;-73
2024/01/23 08:31:46;;;;;;;;;;;20.10;51.40;;;;;;5010754;28;19925;-71
2024/01/23 08:34:11;;;;;;;;;;;20.10;51.40;;;;;;5012039;28;19935;-74
2024/01/23 08:36:37;;;;;;;;;;;20.10;51.50;;;;;;5011207;28;19925;-74
2024/01/23 08:39:03;;;;;;;;;;;20.10;51.50;;;;;;5012312;28;19926;-73
2024/01/23 08:41:29;;;;;;;;;;;20.10;51.50;;;;;;5010880;28;19925;-74
2024/01/23 08:43:55;;;;;;;;;;;20.10;51.60;;;;;;5012689;28;20028;-72
2024/01/23 08:46:23;;;;;;;;;;;20.20;51.70;;;;;;5029290;28;20023;-74
2024/01/23 08:48:49;;;;;;;;;;;20.20;51.60;;;;;;5012344;28;19975;-74
2024/01/23 08:51:14;;;;;;;;;;;20.20;51.60;;;;;;5009860;28;19929;-74
2024/01/23 08:53:40;;;;;;;;;;;20.20;51.60;;;;;;5000681;28;19977;-74
2024/01/23 08:56:05;;;;;;;;;;;20.20;51.70;;;;;;4997474;28;19932;-73
2024/01/23 08:58:31;;;;;;;;;;;20.20;51.60;;;;;;5006218;28;20012;-74
2024/01/23 09:00:57;;;;;;;;;;;20.20;51.60;;;;;;5011567;28;20019;-74
2024/01/23 09:03:22;;;;;;;;;;;20.20;51.60;;;;;;5015364;28;20024;-75
2024/01/23 09:05:48;;;;;;;;;;;20.20;51.70;;;;;;5012891;28;19925;-73
2024/01/23 09:08:13;;;;;;;;;;;20.20;51.70;;;;;;5029962;28;20087;-69
2024/01/23 09:10:39;;;;;;;;;;;20.20;51.60;;;;;;5033091;28;20319;-74
2024/01/23 09:13:04;;;;;;;;;;;20.20;51.50;;;;;;5011895;28;19925;-73
2024/01/23 09:15:31;;;;;;;;;;;20.20;51.70;;;;;;5009142;28;19929;-72
2024/01/23 09:17:57;;;;;;;;;;;20.20;51.70;;;;;;5032842;28;20403;-72
2024/01/23 09:20:22;;;;;;;;;;;20.20;51.80;;;;;;5012840;28;19929;-74
2024/01/23 09:22:50;;;;;;;;;;;20.20;51.90;;;;;;5031783;28;20400;-73
2024/01/23 09:25:17;;;;;;;;;;;20.20;52.00;;;;;;5007278;28;19932;-71
2024/01/23 09:27:43;;;;;;;;;;;20.20;52.00;;;;;;5013296;28;19926;-72
2024/01/23 09:30:08;;;;;;;;;;;20.20;52.00;;;;;;5011087;28;20043;-71
2024/01/23 09:32:34;;;;;;;;;;;20.20;52.00;;;;;;5009105;28;19957;-72
2024/01/23 09:34:59;;;;;;;;;;;20.20;52.00;;;;;;5007402;28;19925;-69
2024/01/23 09:37:25;;;;;;;;;;;20.20;52.10;;;;;;4998359;28;19925;-72
2024/01/23 09:39:52;;;;;;;;;;;20.20;52.00;;;;;;5007521;28;19991;-71
2024/01/23 09:42:18;;;;;;;;;;;20.20;52.10;;;;;;5015427;28;19925;-73
2024/01/23 09:44:43;;;;;;;;;;;20.20;52.10;;;;;;5014795;28;19979;-72
2024/01/23 09:47:09;;;;;;;;;;;20.30;52.20;;;;;;4998068;28;19933;-71
2024/01/23 09:49:34;;;;;;;;;;;20.20;52.20;;;;;;5005622;28;20385;-72
2024/01/23 09:52:00;;;;;;;;;;;20.20;52.20;;;;;;5010843;28;19972;-71
2024/01/23 09:54:27;;;;;;;;;;;20.20;52.20;;;;;;5013273;28;20063;-71
2024/01/23 09:56:53;;;;;;;;;;;20.20;52.20;;;;;;5010729;28;19937;-71
2024/01/23 09:59:18;;;;;;;;;;;20.20;52.90;;;;;;5012725;28;19927;-70
2024/01/23 10:01:44;;;;;;;;;;;20.20;52.30;;;;;;4995396;28;19926;-70
2024/01/23 10:04:09;;;;;;;;;;;20.20;52.30;;;;;;4992448;28;20252;-70
2024/01/23 10:06:35;;;;;;;;;;;20.20;52.30;;;;;;4991799;28;19926;-72
2024/01/23 10:09:00;;;;;;;;;;;20.20;52.30;;;;;;5003342;28;20374;-73
2024/01/23 10:11:26;;;;;;;;;;;20.20;52.10;;;;;;5007173;28;20300;-73
2024/01/23 10:13:54;;;;;;;;;;;20.20;52.10;;;;;;5001785;28;19965;-73
2024/01/23 10:16:19;;;;;;;;;;;20.20;52.30;;;;;;5013600;28;19929;-71
2024/01/23 10:18:51;;;;;;;;;;;20.20;52.40;;;;;;5011416;28;19930;-71
2024/01/23 10:21:21;;;;;;;;;;;20.20;52.40;;;;;;5010435;28;19976;-71
2024/01/23 10:23:50;;;;;;;;;;;20.20;52.40;;;;;;5005944;28;19926;-72
2024/01/23 10:26:16;;;;;;;;;;;20.20;52.40;;;;;;5014502;28;19933;-72
2024/01/23 10:28:44;;;;;;;;;;;20.10;52.30;;;;;;5013630;28;19975;-73
2024/01/23 10:31:10;;;;;;;;;;;20.20;52.40;;;;;;5015763;28;20344;-72
2024/01/23 10:33:37;;;;;;;;;;;20.20;52.40;;;;;;5003723;28;19951;-73
2024/01/23 10:36:08;;;;;;;;;;;20.10;52.40;;;;;;5011721;28;20399;-72
2024/01/23 10:38:35;;;;;;;;;;;20.10;52.40;;;;;;5007670;28;19925;-73
2024/01/23 10:41:01;;;;;;;;;;;20.10;52.40;;;;;;5004837;28;19930;-72
2024/01/23 10:43:27;;;;;;;;;;;20.10;52.30;;;;;;5009677;28;19926;-72
2024/01/23 10:45:53;;;;;;;;;;;20.10;52.10;;;;;;4998147;28;20289;-69
2024/01/23 10:48:19;;;;;;;;;;;20.10;52.10;;;;;;5013884;28;20381;-74
2024/01/23 10:50:45;;;;;;;;;;;20.10;52.10;;;;;;5015153;28;19948;-74
2024/01/23 10:53:11;;;;;;;;;;;20.10;52.00;;;;;;5014168;28;19961;-72
2024/01/23 10:55:37;;;;;;;;;;;20.10;52.00;;;;;;4998665;28;20361;-74
2024/01/23 10:58:04;;;;;;;;;;;20.00;51.90;;;;;;5014782;28;20012;-72
2024/01/23 11:00:30;;;;;;;;;;;20.00;51.90;;;;;;5013282;28;19957;-71
2024/01/23 11:02:59;;;;;;;;;;;20.00;51.90;;;;;;4997543;28;19932;-71
2024/01/23 11:05:32;;;;;;;;;;;20.00;51.90;;;;;;5010800;28;19925;-72
2024/01/23 11:07:57;;;;;;;;;;;20.00;51.90;;;;;;4995566;28;19967;-73
2024/01/23 11:10:34;;;;;;;;;;;19.90;52.00;;;;;;5006757;28;19977;-75
2024/01/23 11:13:02;;;;;;;;;;;20.00;52.30;;;;;;5007957;28;19925;-74
2024/01/23 11:15:28;;;;;;;;;;;20.00;52.60;;;;;;4986006;28;20344;-71
2024/01/23 11:17:53;;;;;;;;;;;20.00;52.40;;;;;;5009890;28;20490;-68
2024/01/23 11:20:19;;;;;;;;;;;19.90;52.40;;;;;;5008388;28;19926;-70
2024/01/23 11:22:44;;;;;;;;;;;20.00;52.60;;;;;;5010823;28;19925;-72
2024/01/23 11:25:10;;;;;;;;;;;19.90;52.60;;;;;;5008172;28;20289;-72
2024/01/23 11:27:36;;;;;;;;;;;19.90;52.40;;;;;;4994081;28;19925;-74
2024/01/23 11:30:01;;;;;;;;;;;19.90;52.40;;;;;;4994740;28;19929;-73
2024/01/23 11:32:28;;;;;;;;;;;19.90;53.00;;;;;;4985064;28;19926;-73
2024/01/23 11:35:02;;;;;;;;;;;19.90;52.30;;;;;;4995777;28;20328;-73
2024/01/23 11:37:46;;;;;;;;;;;19.90;52.30;;;;;;4995224;28;19925;-73
2024/01/23 11:40:27;;;;;;;;;;;19.90;52.30;;;;;;4994311;28;19934;-73
2024/01/23 11:42:53;;;;;;;;;;;19.90;52.30;;;;;;5006721;28;19933;-73
2024/01/23 11:45:26;;;;;;;;;;;19.90;52.30;;;;;;5015503;28;19926;-73
2024/01/23 11:47:53;;;;;;;;;;;19.90;52.30;;;;;;5029314;28;19932;-71
2024/01/23 11:50:19;;;;;;;;;;;19.90;52.40;;;;;;5005986;28;19933;-72
2024/01/23 11:52:45;;;;;;;;;;;19.90;52.40;;;;;;4995296;28;19925;-71
2024/01/23 11:55:11;;;;;;;;;;;19.90;52.40;;;;;;4984186;28;19926;-71
2024/01/23 11:57:36;;;;;;;;;;;19.90;52.30;;;;;;5012932;28;19933;-71
2024/01/23 12:00:02;;;;;;;;;;;19.80;52.30;;;;;;5013915;28;20285;-71
2024/01/23 12:02:27;;;;;;;;;;;19.90;52.30;;;;;;5014444;28;19925;-70
2024/01/23 12:04:53;;;;;;;;;;;19.80;52.30;;;;;;4992798;28;19926;-70
2024/01/23 12:07:18;;;;;;;;;;;19.80;52.20;;;;;;5004745;28;19926;-68
2024/01/23 12:09:44;;;;;;;;;;;19.80;51.90;;;;;;4994092;28;19988;-71
2024/01/23 12:12:09;;;;;;;;;;;19.80;51.70;;;;;;5006367;28;19968;-71
2024/01/23 12:14:34;;;;;;;;;;;19.80;51.20;;;;;;5010378;28;20377;-70
2024/01/23 12:17:05;;;;;;;;;;;19.70;51.00;;;;;;5007393;28;19993;-71
2024/01/23 12:19:44;;;;;;;;;;;19.70;51.10;;;;;;5001274;28;19929;-71
2024/01/23 12:22:10;;;;;;;;;;;19.70;51.00;;;;;;5013703;28;19933;-71
2024/01/23 12:24:35;;;;;;;;;;;19.70;51.00;;;;;;5009122;28;19926;-71
2024/01/23 12:27:01;;;;;;;;;;;19.70;51.00;;;;;;5013146;28;19975;-71
2024/01/23 12:29:26;;;;;;;;;;;19.70;50.90;;;;;;5033713;28;19925;-71
2024/01/23 12:31:55;;;;;;;;;;;19.70;51.00;;;;;;5014502;28;19979;-71
2024/01/23 12:34:21;;;;;;;;;;;19.70;51.10;;;;;;5033936;28;19933;-72
2024/01/23 12:36:49;;;;;;;;;;;19.70;51.10;;;;;;4999010;28;19932;-71
2024/01/23 12:39:15;;;;;;;;;;;19.70;51.10;;;;;;5032702;28;19925;-71
2024/01/23 12:41:41;;;;;;;;;;;19.70;51.20;;;;;;5029436;28;19980;-71
2024/01/23 12:44:07;;;;;;;;;;;19.70;51.20;;;;;;5033476;28;19929;-72
2024/01/23 12:46:32;;;;;;;;;;;19.70;51.20;;;;;;5032624;28;20377;-70
2024/01/23 12:49:04;;;;;;;;;;;19.70;51.20;;;;;;5015468;28;20014;-71
2024/01/23 12:51:30;;;;;;;;;;;19.80;51.30;;;;;;5033455;28;19925;-70
2024/01/23 12:53:58;;;;;;;;;;;19.80;51.20;;;;;;5032316;28;19970;-71
2024/01/23 12:56:24;;;;;;;;;;;19.80;51.10;;;;;;5012412;28;20381;-68
2024/01/23 12:58:52;;;;;;;;;;;19.80;51.00;;;;;;5022790;28;20020;-74
2024/01/23 13:01:20;;;;;;;;;;;19.80;51.00;;;;;;5012471;28;20309;-74
2024/01/23 13:03:46;;;;;;;;;;;19.80;51.00;;;;;;5000402;28;19925;-72
2024/01/23 13:06:11;;;;;;;;;;;19.80;50.90;;;;;;5032884;28;19933;-75
2024/01/23 13:08:37;;;;;;;;;;;19.80;51.00;;;;;;5032272;28;19921;-75
2024/01/23 13:11:03;;;;;;;;;;;19.80;51.10;;;;;;5032654;28;20300;-73
2024/01/23 13:13:29;;;;;;;;;;;19.90;51.10;;;;;;5007076;28;19924;-69
2024/01/23 13:15:54;;;;;;;;;;;19.80;51.00;;;;;;5031698;28;19921;-72
2024/01/23 13:18:22;;;;;;;;;;;19.90;51.10;;;;;;5014882;28;19936;-74
2024/01/23 13:20:48;;;;;;;;;;;19.90;51.20;;;;;;5014786;28;19932;-71
2024/01/23 13:23:13;;;;;;;;;;;19.90;51.30;;;;;;5011570;28;19925;-72
2024/01/23 13:25:45;;;;;;;;;;;19.90;51.30;;;;;;5024908;28;19965;-70
2024/01/23 13:28:10;;;;;;;;;;;19.90;51.40;;;;;;5029647;28;20697;-72
2024/01/23 13:30:36;;;;;;;;;;;19.90;51.40;;;;;;5025882;28;20373;-73
2024/01/23 13:33:01;;;;;;;;;;;19.90;51.40;;;;;;5032730;28;19929;-72
2024/01/23 13:35:28;;;;;;;;;;;19.90;51.40;;;;;;5016321;28;19925;-74
2024/01/23 13:37:54;;;;;;;;;;;19.90;51.40;;;;;;5015398;28;19929;-74
2024/01/23 13:40:20;;;;;;;;;;;20.00;51.50;;;;;;5033055;28;19972;-75
2024/01/23 13:42:45;;;;;;;;;;;20.00;51.40;;;;;;5031874;28;19971;-75
2024/01/23 13:45:11;;;;;;;;;;;20.00;51.50;;;;;;5032011;28;19935;-71
2024/01/23 13:47:43;;;;;;;;;;;20.00;51.50;;;;;;5012092;28;19932;-75
2024/01/23 13:50:09;;;;;;;;;;;20.00;51.40;;;;;;5031390;28;20376;-73
2024/01/23 13:52:35;;;;;;;;;;;20.00;51.50;;;;;;5013168;28;19925;-71
2024/01/23 13:55:00;;;;;;;;;;;20.00;51.60;;;;;;5013712;28;19961;-73
2024/01/23 13:57:26;;;;;;;;;;;20.00;51.60;;;;;;5013156;28;19987;-74
2024/01/23 13:59:51;;;;;;;;;;;20.00;51.60;;;;;;5028408;28;19929;-76
2024/01/23 14:02:17;;;;;;;;;;;20.00;51.70;;;;;;5010047;28;19925;-73
2024/01/23 14:04:42;;;;;;;;;;;20.10;51.70;;;;;;5031908;28;20508;-73
2024/01/23 14:07:08;;;;;;;;;;;20.10;51.80;;;;;;5031026;28;19932;-71
2024/01/23 14:09:33;;;;;;;;;;;20.10;51.80;;;;;;5028821;28;19926;-71